Date,TemperatureHighF,TemperatureAvgF,TemperatureLowF,DewpointHighF,DewpointAvgF,DewpointLowF,HumidityHigh,HumidityAvg,HumidityLow,PressureMaxIn,PressureMinIn,WindSpeedMaxMPH,WindSpeedAvgMPH,GustSpeedMaxMPH,PrecipitationSumIn
2018-8-1,90.7,77.1,63.5,59.4,56.1,54.0,76,54,31,30.16,30.08,15,1,16,0.00
2018-8-2,90.0,77.4,64.8,60.6,57.5,53.8,71,54,36,30.21,30.15,11,2,14,0.00
2018-8-3,94.8,80.2,65.5,61.5,58.7,54.1,76,51,27,30.21,30.06,11,1,15,0.00
2018-8-4,91.0,79.7,68.4,65.1,60.9,57.2,77,59,35,30.18,30.07,16,2,22,0.00
2018-8-5,86.0,73.9,61.9,62.2,57.4,52.7,91,63,33,30.23,30.09,13,2,15,0.00
2018-8-6,98.6,80.4,62.4,57.7,55.6,52.3,76,48,24,30.11,29.85,8,1,13,0.00
2018-8-7,99.1,82.5,66.0,61.5,56.1,47.7,77,45,20,29.88,29.65,17,1,20,0.00
2018-8-8,83.7,73.4,64.6,67.1,59.6,51.6,96,71,44,29.98,29.67,33,3,42,0.52
2018-8-9,78.3,69.1,59.9,68.0,58.8,53.8,89,77,66,30.02,29.71,14,2,20,0.04
2018-8-10,75.6,65.6,55.8,55.6,50.7,44.1,92,64,34,30.18,30.02,16,2,18,0.00
2018-8-11,77.0,66.3,55.6,56.8,50.5,44.4,93,64,34,30.23,30.13,11,2,15,0.04
2018-8-12,88.5,72.7,57.0,52.9,50.1,44.6,78,50,27,30.14,29.76,6,0,11,0.00
2018-8-13,73.2,68.1,63.1,64.6,60.5,52.0,92,79,48,29.82,29.68,14,1,16,0.33
2018-8-14,73.6,67.0,60.4,64.8,59.7,55.6,94,81,58,30.09,29.82,13,2,17,0.13
2018-8-15,74.1,67.7,61.2,62.1,59.5,56.3,89,78,60,30.12,30.06,11,1,12,0.00
2018-8-16,85.3,72.9,60.4,62.1,59.3,56.5,88,70,42,30.08,29.92,9,1,12,0.00
2018-8-17,75.7,68.1,60.4,62.2,57.0,51.4,96,74,48,30.16,29.97,10,1,14,0.61
2018-8-18,73.6,64.1,54.7,57.9,55.2,51.4,90,72,57,30.21,30.16,10,1,10,0.00
2018-8-19,80.4,69.1,57.7,62.2,58.7,55.2,92,72,52,30.21,30.07,13,1,16,0.00
2018-8-20,75.7,70.8,65.8,64.9,63.1,61.0,90,79,65,30.14,30.07,9,1,11,0.00
2018-8-21,85.5,75.6,65.8,63.9,62.1,59.2,90,70,44,30.15,30.06,6,0,8,0.00
2018-8-22,81.0,72.9,64.9,64.8,62.9,60.6,93,76,52,30.08,29.98,10,1,12,0.00
2018-8-23,75.9,67.6,59.5,63.0,60.2,57.6,94,81,58,30.01,29.85,13,1,17,0.03
2018-8-24,67.6,63.5,59.4,61.9,50.6,42.6,92,66,43,29.95,29.85,15,3,17,0.00
2018-8-25,65.5,59.0,52.5,51.6,48.3,44.1,92,71,48,30.03,29.80,15,3,21,0.11
2018-8-26,68.2,58.9,49.6,52.5,47.9,41.7,89,68,39,30.06,29.79,10,1,12,0.12
2018-8-27,68.5,63.0,57.4,61.7,56.1,52.2,96,79,57,30.06,29.75,17,2,20,0.10
2018-8-28,79.2,69.6,60.1,56.5,54.0,49.3,84,66,40,30.12,29.97,5,0,5,0.00
2018-8-29,77.4,65.9,54.5,65.1,57.2,51.3,92,83,58,30.05,29.85,10,1,11,0.18
2018-8-30,69.6,63.6,57.6,58.5,52.4,44.2,96,73,41,30.22,30.05,14,2,15,0.07
2018-8-31,70.2,61.9,53.6,52.3,48.3,43.0,87,66,39,30.26,30.19,11,1,14,0.00